Terminal Aerodrome Forecast
Issued by NWS Shreveport, LA

Home | Current Version | Previous Version | Text Only | Print | Product List | Glossary On
Versions: 1 2 3 4 5 6 7 8 9 10 11 12 13
000
FTUS44 KSHV 232341
TAFLFK
TAF
KLFK 232341Z 2400/2424 17007KT P6SM VCTS SCT040CB
      TEMPO 2400/2404 VRB15G25KT 3SM -TSRA BR OVC030CB
     FM240400 VRB03KT P6SM SCT045 BKN100 BKN250
      TEMPO 2410/2414 3SM BR BKN008
     FM241400 23005KT P6SM BKN015
     FM241600 24006KT P6SM VCTS BKN030CB OVC100=

USA.gov is the U.S. government's official web portal to all federal, state and local government web resources and services.